Argo — SMOH — position and weather

sailwx.info

Track history (hours):
 
Tides and Currents Weather Stations Pressure Air Temp Water Temp Dewpoint Dewpoint Depression Visibility Wind Speed Wind Dir Waves Ship Positions

Argo

Last reported at 2015-Jul-29 12:24 UTC. Time now 2015-Aug-02 10:18 UTC.
Position N 58°45' E 017°25'.

Length 26 m; draft 2 m.

Type: Military. MMSI: 265591600.

Date/timePositionNaut miles runAvg speedWind from/ knotsBaromVisibWave heightAir tempDewpointWater temp
2015-Jul-29 12:24N 58°45' E 017°25'1011.6
2015-Jul-29 11:33N 58°40' E 017°09'1211.8
2015-Jul-29 10:33N 58°31' E 016°54'17 1.1
2015-Jul-28 19:27N 58°14' E 016°54'34 8.0
2015-Jul-28 15:13N 57°41' E 016°45'812.0
2015-Jul-28 14:33N 57°33' E 016°42'1716.7
2015-Jul-28 13:33N 57°16' E 016°44'7612.0
2015-Jul-28 07:14N 56°09' E 015°38'1 2.0
2015-Jul-28 06:31N 56°09' E 015°35'  
Track history (hours):
 
Tides and Currents Weather Stations Pressure Air Temp Water Temp Dewpoint Dewpoint Depression Visibility Wind Speed Wind Dir Waves Ship Positions

Argo

Last reported at 2015-Jul-29 12:24 UTC. Time now 2015-Aug-02 10:18 UTC.
Position N 58°45' E 017°25'.

Length 26 m; draft 2 m.

Type: Military. MMSI: 265591600.

Date/timePositionNaut miles runAvg speedWind from/ knotsBaromVisibWave heightAir tempDewpointWater temp
2015-Jul-29 12:24N 58°45' E 017°25'1011.6
2015-Jul-29 11:33N 58°40' E 017°09'1211.8
2015-Jul-29 10:33N 58°31' E 016°54'17 1.1
2015-Jul-28 19:27N 58°14' E 016°54'34 8.0
2015-Jul-28 15:13N 57°41' E 016°45'812.0
2015-Jul-28 14:33N 57°33' E 016°42'1716.7
2015-Jul-28 13:33N 57°16' E 016°44'7612.0
2015-Jul-28 07:14N 56°09' E 015°38'1 2.0
2015-Jul-28 06:31N 56°09' E 015°35'  

Dump ship's entire track history